58MA weather

Boston Scientific Marlboro Heliport
Marlboro, Massachusetts, United States

Public forecast

Using degrees Fahrenheit for public forecast. Weather courtesy of forecast.io.

METAR (pilot weather report)

Closest report is Laurence G Hanscom Field, 11.7 nm (21.7 km) NE. Retrieved 2019/07/17 05:56 UTC (12 minutes ago):

KBED 170556Z AUTO 21007KT 10SM FEW110 25/19 A2993 RMK AO2 SLP144 T02500189 10283 20250 56007

TAF (pilot weather forecast)

Forecast is more than 12 hours old.

Closest forecast is Laurence G Hanscom Field, 11.7 nm (21.7 km) NE. Retrieved 2019/07/16 00:24 UTC (1 day ago):

TAF KBED 162322Z 1700/1724 19006KT P6SM SCT250 FM170800 22008KT P6SM SCT120 FM171300 25008KT P6SM BKN070 FM171600 25010KT P6SM VCSH BKN060 FM171800 24010KT 6SM -RA BR VCTS BKN050CB